sensor_id;sensor_type;location;lat;lon;timestamp;P1;durP1;ratioP1;P2;durP2;ratioP2
69569;SDS011;56781;42.292;23.146;2023-09-08T00:00:29;13.70;;;8.52;;
69569;SDS011;56781;42.292;23.146;2023-09-08T00:02:56;13.48;;;7.85;;
69569;SDS011;56781;42.292;23.146;2023-09-08T00:05:24;12.68;;;7.93;;
69569;SDS011;56781;42.292;23.146;2023-09-08T00:07:51;12.00;;;7.18;;
69569;SDS011;56781;42.292;23.146;2023-09-08T00:10:18;10.85;;;6.82;;
69569;SDS011;56781;42.292;23.146;2023-09-08T00:12:45;12.38;;;6.85;;
69569;SDS011;56781;42.292;23.146;2023-09-08T00:15:12;10.85;;;6.43;;
69569;SDS011;56781;42.292;23.146;2023-09-08T00:17:39;9.93;;;6.30;;
69569;SDS011;56781;42.292;23.146;2023-09-08T00:20:07;11.70;;;6.30;;
69569;SDS011;56781;42.292;23.146;2023-09-08T00:22:37;12.75;;;6.70;;
69569;SDS011;56781;42.292;23.146;2023-09-08T00:25:05;10.32;;;6.22;;
69569;SDS011;56781;42.292;23.146;2023-09-08T00:27:32;10.55;;;6.63;;
69569;SDS011;56781;42.292;23.146;2023-09-08T00:29:59;11.88;;;6.68;;
69569;SDS011;56781;42.292;23.146;2023-09-08T00:32:28;12.30;;;6.82;;
69569;SDS011;56781;42.292;23.146;2023-09-08T00:34:56;10.52;;;6.90;;
69569;SDS011;56781;42.292;23.146;2023-09-08T00:37:23;12.27;;;7.10;;
69569;SDS011;56781;42.292;23.146;2023-09-08T00:39:50;10.02;;;6.30;;
69569;SDS011;56781;42.292;23.146;2023-09-08T00:42:17;11.98;;;6.38;;
69569;SDS011;56781;42.292;23.146;2023-09-08T00:44:45;10.25;;;6.32;;
69569;SDS011;56781;42.292;23.146;2023-09-08T00:47:12;12.95;;;6.63;;
69569;SDS011;56781;42.292;23.146;2023-09-08T00:49:39;11.85;;;6.18;;
69569;SDS011;56781;42.292;23.146;2023-09-08T00:52:06;10.27;;;5.85;;
69569;SDS011;56781;42.292;23.146;2023-09-08T00:54:33;10.63;;;6.00;;
69569;SDS011;56781;42.292;23.146;2023-09-08T00:57:01;14.15;;;6.30;;
69569;SDS011;56781;42.292;23.146;2023-09-08T00:59:31;10.52;;;5.72;;
69569;SDS011;56781;42.292;23.146;2023-09-08T01:01:59;9.02;;;5.50;;
69569;SDS011;56781;42.292;23.146;2023-09-08T01:04:26;11.98;;;5.60;;
69569;SDS011;56781;42.292;23.146;2023-09-08T01:06:54;10.10;;;5.80;;
69569;SDS011;56781;42.292;23.146;2023-09-08T01:09:23;10.27;;;5.60;;
69569;SDS011;56781;42.292;23.146;2023-09-08T01:11:51;9.32;;;5.70;;
69569;SDS011;56781;42.292;23.146;2023-09-08T01:14:18;8.35;;;5.30;;
69569;SDS011;56781;42.292;23.146;2023-09-08T01:16:46;11.32;;;6.00;;
69569;SDS011;56781;42.292;23.146;2023-09-08T01:19:13;9.75;;;5.55;;
69569;SDS011;56781;42.292;23.146;2023-09-08T01:21:50;11.10;;;5.80;;
69569;SDS011;56781;42.292;23.146;2023-09-08T01:27:35;8.38;;;5.10;;
69569;SDS011;56781;42.292;23.146;2023-09-08T01:30:05;11.38;;;5.35;;
69569;SDS011;56781;42.292;23.146;2023-09-08T01:32:33;11.15;;;5.70;;
69569;SDS011;56781;42.292;23.146;2023-09-08T01:35:01;8.60;;;5.10;;
69569;SDS011;56781;42.292;23.146;2023-09-08T01:37:29;9.25;;;5.30;;
69569;SDS011;56781;42.292;23.146;2023-09-08T01:39:56;8.38;;;5.22;;
69569;SDS011;56781;42.292;23.146;2023-09-08T01:42:23;9.70;;;5.43;;
69569;SDS011;56781;42.292;23.146;2023-09-08T01:44:51;9.48;;;5.30;;
69569;SDS011;56781;42.292;23.146;2023-09-08T01:47:18;9.38;;;4.75;;
69569;SDS011;56781;42.292;23.146;2023-09-08T01:49:45;7.75;;;5.00;;
69569;SDS011;56781;42.292;23.146;2023-09-08T01:52:12;12.80;;;5.05;;
69569;SDS011;56781;42.292;23.146;2023-09-08T01:54:40;8.88;;;5.32;;
69569;SDS011;56781;42.292;23.146;2023-09-08T01:57:07;7.57;;;5.20;;
69569;SDS011;56781;42.292;23.146;2023-09-08T01:59:34;9.80;;;5.00;;
69569;SDS011;56781;42.292;23.146;2023-09-08T02:02:04;9.70;;;4.90;;
69569;SDS011;56781;42.292;23.146;2023-09-08T02:04:31;7.88;;;4.75;;
69569;SDS011;56781;42.292;23.146;2023-09-08T02:06:59;7.35;;;4.70;;
69569;SDS011;56781;42.292;23.146;2023-09-08T02:09:33;7.40;;;4.72;;
69569;SDS011;56781;42.292;23.146;2023-09-08T02:12:01;7.68;;;4.40;;
69569;SDS011;56781;42.292;23.146;2023-09-08T02:14:29;7.93;;;4.40;;
69569;SDS011;56781;42.292;23.146;2023-09-08T02:16:57;7.07;;;4.28;;
69569;SDS011;56781;42.292;23.146;2023-09-08T02:19:24;7.75;;;4.53;;
69569;SDS011;56781;42.292;23.146;2023-09-08T02:21:51;7.18;;;3.97;;
69569;SDS011;56781;42.292;23.146;2023-09-08T02:24:18;9.20;;;4.38;;
69569;SDS011;56781;42.292;23.146;2023-09-08T02:26:46;8.27;;;4.30;;
69569;SDS011;56781;42.292;23.146;2023-09-08T02:29:13;7.38;;;3.92;;
69569;SDS011;56781;42.292;23.146;2023-09-08T02:31:40;6.78;;;4.03;;
69569;SDS011;56781;42.292;23.146;2023-09-08T02:34:07;6.20;;;3.85;;
69569;SDS011;56781;42.292;23.146;2023-09-08T02:36:35;7.32;;;4.10;;
69569;SDS011;56781;42.292;23.146;2023-09-08T02:39:02;8.02;;;4.20;;
69569;SDS011;56781;42.292;23.146;2023-09-08T02:41:29;7.13;;;4.07;;
69569;SDS011;56781;42.292;23.146;2023-09-08T02:43:56;6.80;;;4.05;;
69569;SDS011;56781;42.292;23.146;2023-09-08T02:46:24;7.82;;;4.20;;
69569;SDS011;56781;42.292;23.146;2023-09-08T02:48:51;6.63;;;3.80;;
69569;SDS011;56781;42.292;23.146;2023-09-08T02:51:19;8.60;;;4.00;;
69569;SDS011;56781;42.292;23.146;2023-09-08T02:53:46;9.98;;;3.80;;
69569;SDS011;56781;42.292;23.146;2023-09-08T02:56:13;9.10;;;3.90;;
69569;SDS011;56781;42.292;23.146;2023-09-08T02:58:40;8.88;;;4.05;;
69569;SDS011;56781;42.292;23.146;2023-09-08T03:01:12;8.48;;;3.97;;
69569;SDS011;56781;42.292;23.146;2023-09-08T03:03:43;9.00;;;4.00;;
69569;SDS011;56781;42.292;23.146;2023-09-08T03:06:10;9.20;;;4.13;;
69569;SDS011;56781;42.292;23.146;2023-09-08T03:08:38;6.30;;;3.70;;
69569;SDS011;56781;42.292;23.146;2023-09-08T03:11:05;7.25;;;4.18;;
69569;SDS011;56781;42.292;23.146;2023-09-08T03:13:32;6.85;;;3.67;;
69569;SDS011;56781;42.292;23.146;2023-09-08T03:16:06;8.32;;;3.90;;
69569;SDS011;56781;42.292;23.146;2023-09-08T03:18:34;7.18;;;3.80;;
69569;SDS011;56781;42.292;23.146;2023-09-08T03:21:03;8.52;;;3.85;;
69569;SDS011;56781;42.292;23.146;2023-09-08T03:23:36;8.50;;;3.80;;
69569;SDS011;56781;42.292;23.146;2023-09-08T03:26:08;7.28;;;3.78;;
69569;SDS011;56781;42.292;23.146;2023-09-08T03:28:36;11.25;;;4.07;;
69569;SDS011;56781;42.292;23.146;2023-09-08T03:31:04;7.72;;;3.70;;
69569;SDS011;56781;42.292;23.146;2023-09-08T03:33:32;7.20;;;3.60;;
69569;SDS011;56781;42.292;23.146;2023-09-08T03:35:59;6.03;;;3.60;;
69569;SDS011;56781;42.292;23.146;2023-09-08T03:38:27;9.52;;;3.85;;
69569;SDS011;56781;42.292;23.146;2023-09-08T03:40:54;6.43;;;3.63;;
69569;SDS011;56781;42.292;23.146;2023-09-08T03:43:21;7.07;;;3.55;;
69569;SDS011;56781;42.292;23.146;2023-09-08T03:45:49;7.63;;;3.45;;
69569;SDS011;56781;42.292;23.146;2023-09-08T03:48:16;8.60;;;3.67;;
69569;SDS011;56781;42.292;23.146;2023-09-08T03:50:43;6.47;;;3.75;;
69569;SDS011;56781;42.292;23.146;2023-09-08T03:53:12;11.55;;;4.07;;
69569;SDS011;56781;42.292;23.146;2023-09-08T03:55:40;6.38;;;3.30;;
69569;SDS011;56781;42.292;23.146;2023-09-08T03:58:07;8.27;;;3.50;;
69569;SDS011;56781;42.292;23.146;2023-09-08T04:00:34;7.10;;;3.97;;
69569;SDS011;56781;42.292;23.146;2023-09-08T04:03:02;11.35;;;3.80;;
69569;SDS011;56781;42.292;23.146;2023-09-08T04:05:30;7.15;;;3.55;;
69569;SDS011;56781;42.292;23.146;2023-09-08T04:07:57;7.45;;;3.95;;
69569;SDS011;56781;42.292;23.146;2023-09-08T04:10:24;8.82;;;3.83;;
69569;SDS011;56781;42.292;23.146;2023-09-08T04:12:52;6.25;;;3.38;;
69569;SDS011;56781;42.292;23.146;2023-09-08T04:15:19;8.15;;;3.83;;
69569;SDS011;56781;42.292;23.146;2023-09-08T04:17:46;6.97;;;3.90;;
69569;SDS011;56781;42.292;23.146;2023-09-08T04:20:14;7.00;;;3.70;;
69569;SDS011;56781;42.292;23.146;2023-09-08T04:22:42;7.18;;;3.70;;
69569;SDS011;56781;42.292;23.146;2023-09-08T04:25:09;7.25;;;3.78;;
69569;SDS011;56781;42.292;23.146;2023-09-08T04:27:37;9.48;;;4.45;;
69569;SDS011;56781;42.292;23.146;2023-09-08T04:30:05;8.82;;;3.75;;
69569;SDS011;56781;42.292;23.146;2023-09-08T04:32:33;7.45;;;4.05;;
69569;SDS011;56781;42.292;23.146;2023-09-08T04:35:00;7.97;;;4.18;;
69569;SDS011;56781;42.292;23.146;2023-09-08T04:37:27;6.75;;;4.05;;
69569;SDS011;56781;42.292;23.146;2023-09-08T04:39:56;6.53;;;3.70;;
69569;SDS011;56781;42.292;23.146;2023-09-08T04:42:24;7.63;;;3.88;;
69569;SDS011;56781;42.292;23.146;2023-09-08T04:44:52;9.93;;;3.90;;
69569;SDS011;56781;42.292;23.146;2023-09-08T04:47:19;8.30;;;3.38;;
69569;SDS011;56781;42.292;23.146;2023-09-08T04:49:47;7.68;;;3.38;;
69569;SDS011;56781;42.292;23.146;2023-09-08T04:52:14;8.52;;;3.72;;
69569;SDS011;56781;42.292;23.146;2023-09-08T04:54:41;6.75;;;3.60;;
69569;SDS011;56781;42.292;23.146;2023-09-08T04:57:09;6.30;;;3.50;;
69569;SDS011;56781;42.292;23.146;2023-09-08T04:59:48;9.70;;;4.00;;
69569;SDS011;56781;42.292;23.146;2023-09-08T05:02:16;8.45;;;3.53;;
69569;SDS011;56781;42.292;23.146;2023-09-08T05:04:45;9.30;;;4.03;;
69569;SDS011;56781;42.292;23.146;2023-09-08T05:07:12;8.25;;;3.50;;
69569;SDS011;56781;42.292;23.146;2023-09-08T05:09:40;9.40;;;3.85;;
69569;SDS011;56781;42.292;23.146;2023-09-08T05:12:07;8.32;;;3.90;;
69569;SDS011;56781;42.292;23.146;2023-09-08T05:14:35;7.60;;;3.67;;
69569;SDS011;56781;42.292;23.146;2023-09-08T05:17:02;10.82;;;3.65;;
69569;SDS011;56781;42.292;23.146;2023-09-08T05:19:30;10.38;;;3.78;;
69569;SDS011;56781;42.292;23.146;2023-09-08T05:21:57;9.35;;;3.83;;
69569;SDS011;56781;42.292;23.146;2023-09-08T05:24:24;8.90;;;4.10;;
69569;SDS011;56781;42.292;23.146;2023-09-08T05:26:53;7.18;;;3.78;;
69569;SDS011;56781;42.292;23.146;2023-09-08T05:29:20;7.57;;;4.00;;
69569;SDS011;56781;42.292;23.146;2023-09-08T05:31:47;6.35;;;3.78;;
69569;SDS011;56781;42.292;23.146;2023-09-08T05:34:15;8.93;;;3.72;;
69569;SDS011;56781;42.292;23.146;2023-09-08T05:36:42;7.10;;;3.80;;
69569;SDS011;56781;42.292;23.146;2023-09-08T05:39:09;7.72;;;4.05;;
69569;SDS011;56781;42.292;23.146;2023-09-08T05:41:37;7.22;;;4.47;;
69569;SDS011;56781;42.292;23.146;2023-09-08T05:44:04;7.07;;;4.20;;
69569;SDS011;56781;42.292;23.146;2023-09-08T05:46:31;11.18;;;4.30;;
69569;SDS011;56781;42.292;23.146;2023-09-08T05:48:59;6.72;;;4.07;;
69569;SDS011;56781;42.292;23.146;2023-09-08T05:51:26;7.80;;;3.85;;
69569;SDS011;56781;42.292;23.146;2023-09-08T05:53:53;7.10;;;3.95;;
69569;SDS011;56781;42.292;23.146;2023-09-08T05:56:24;8.43;;;4.22;;
69569;SDS011;56781;42.292;23.146;2023-09-08T05:58:51;9.63;;;4.10;;
69569;SDS011;56781;42.292;23.146;2023-09-08T06:01:19;8.93;;;4.15;;
69569;SDS011;56781;42.292;23.146;2023-09-08T06:03:48;6.75;;;3.85;;
69569;SDS011;56781;42.292;23.146;2023-09-08T06:06:15;6.72;;;3.95;;
69569;SDS011;56781;42.292;23.146;2023-09-08T06:08:42;7.72;;;4.00;;
69569;SDS011;56781;42.292;23.146;2023-09-08T06:11:09;8.32;;;4.00;;
69569;SDS011;56781;42.292;23.146;2023-09-08T06:13:38;8.35;;;4.20;;
69569;SDS011;56781;42.292;23.146;2023-09-08T06:16:05;6.57;;;3.95;;
69569;SDS011;56781;42.292;23.146;2023-09-08T06:18:33;7.68;;;3.95;;
69569;SDS011;56781;42.292;23.146;2023-09-08T06:21:06;7.30;;;4.28;;
69569;SDS011;56781;42.292;23.146;2023-09-08T06:23:34;8.88;;;4.20;;
69569;SDS011;56781;42.292;23.146;2023-09-08T06:26:03;7.07;;;3.85;;
69569;SDS011;56781;42.292;23.146;2023-09-08T06:28:30;6.60;;;3.78;;
69569;SDS011;56781;42.292;23.146;2023-09-08T06:30:58;7.07;;;4.00;;
69569;SDS011;56781;42.292;23.146;2023-09-08T06:33:25;9.30;;;4.35;;
69569;SDS011;56781;42.292;23.146;2023-09-08T06:35:53;8.48;;;3.78;;
69569;SDS011;56781;42.292;23.146;2023-09-08T06:38:20;9.15;;;4.10;;
69569;SDS011;56781;42.292;23.146;2023-09-08T06:40:47;10.02;;;3.97;;
69569;SDS011;56781;42.292;23.146;2023-09-08T06:43:14;5.88;;;3.83;;
69569;SDS011;56781;42.292;23.146;2023-09-08T06:45:42;6.65;;;4.05;;
69569;SDS011;56781;42.292;23.146;2023-09-08T06:48:09;8.93;;;3.90;;
69569;SDS011;56781;42.292;23.146;2023-09-08T06:50:36;5.68;;;3.55;;
69569;SDS011;56781;42.292;23.146;2023-09-08T06:53:03;6.63;;;3.60;;
69569;SDS011;56781;42.292;23.146;2023-09-08T06:55:30;8.95;;;3.50;;
69569;SDS011;56781;42.292;23.146;2023-09-08T06:57:58;5.65;;;3.38;;
69569;SDS011;56781;42.292;23.146;2023-09-08T07:00:25;5.95;;;3.55;;
69569;SDS011;56781;42.292;23.146;2023-09-08T07:02:52;7.72;;;3.70;;
69569;SDS011;56781;42.292;23.146;2023-09-08T07:05:20;5.65;;;3.33;;
69569;SDS011;56781;42.292;23.146;2023-09-08T07:07:47;5.80;;;3.20;;
69569;SDS011;56781;42.292;23.146;2023-09-08T07:10:14;5.50;;;3.50;;
69569;SDS011;56781;42.292;23.146;2023-09-08T07:12:42;7.03;;;3.65;;
69569;SDS011;56781;42.292;23.146;2023-09-08T07:15:09;6.63;;;3.50;;
69569;SDS011;56781;42.292;23.146;2023-09-08T07:17:37;7.32;;;3.63;;
69569;SDS011;56781;42.292;23.146;2023-09-08T07:20:04;6.32;;;3.30;;
69569;SDS011;56781;42.292;23.146;2023-09-08T07:22:32;5.05;;;3.30;;
69569;SDS011;56781;42.292;23.146;2023-09-08T07:24:59;6.97;;;3.58;;
69569;SDS011;56781;42.292;23.146;2023-09-08T07:27:26;7.10;;;3.40;;
69569;SDS011;56781;42.292;23.146;2023-09-08T07:29:53;8.88;;;3.47;;
69569;SDS011;56781;42.292;23.146;2023-09-08T07:32:21;6.57;;;3.72;;
69569;SDS011;56781;42.292;23.146;2023-09-08T07:34:48;6.93;;;3.78;;
69569;SDS011;56781;42.292;23.146;2023-09-08T08:12:06;6.00;;;3.70;;
69569;SDS011;56781;42.292;23.146;2023-09-08T08:14:33;6.15;;;3.80;;
69569;SDS011;56781;42.292;23.146;2023-09-08T08:17:00;6.50;;;3.77;;
69569;SDS011;56781;42.292;23.146;2023-09-08T08:19:27;8.27;;;3.17;;
69569;SDS011;56781;42.292;23.146;2023-09-08T08:21:54;6.05;;;3.38;;
69569;SDS011;56781;42.292;23.146;2023-09-08T08:24:23;6.22;;;3.47;;
69569;SDS011;56781;42.292;23.146;2023-09-08T08:26:50;5.43;;;3.67;;
69569;SDS011;56781;42.292;23.146;2023-09-08T08:29:18;6.43;;;3.40;;
69569;SDS011;56781;42.292;23.146;2023-09-08T08:31:46;7.43;;;3.78;;
69569;SDS011;56781;42.292;23.146;2023-09-08T08:34:13;7.40;;;3.58;;
69569;SDS011;56781;42.292;23.146;2023-09-08T08:36:40;5.93;;;3.20;;
69569;SDS011;56781;42.292;23.146;2023-09-08T08:39:07;7.68;;;3.95;;
69569;SDS011;56781;42.292;23.146;2023-09-08T08:41:34;5.43;;;3.50;;
69569;SDS011;56781;42.292;23.146;2023-09-08T08:44:05;6.53;;;3.65;;
69569;SDS011;56781;42.292;23.146;2023-09-08T08:46:33;7.20;;;3.45;;
69569;SDS011;56781;42.292;23.146;2023-09-08T08:49:03;6.05;;;3.70;;
69569;SDS011;56781;42.292;23.146;2023-09-08T08:51:31;6.32;;;3.72;;
69569;SDS011;56781;42.292;23.146;2023-09-08T08:53:58;6.80;;;3.70;;
69569;SDS011;56781;42.292;23.146;2023-09-08T08:56:33;9.07;;;3.85;;
69569;SDS011;56781;42.292;23.146;2023-09-08T08:59:02;6.72;;;3.92;;
69569;SDS011;56781;42.292;23.146;2023-09-08T09:01:30;6.70;;;3.95;;
69569;SDS011;56781;42.292;23.146;2023-09-08T09:03:58;9.10;;;3.85;;
69569;SDS011;56781;42.292;23.146;2023-09-08T09:06:26;6.93;;;3.60;;
69569;SDS011;56781;42.292;23.146;2023-09-08T09:08:53;7.93;;;3.90;;
69569;SDS011;56781;42.292;23.146;2023-09-08T09:11:20;6.45;;;3.90;;
69569;SDS011;56781;42.292;23.146;2023-09-08T09:13:47;6.35;;;3.78;;
69569;SDS011;56781;42.292;23.146;2023-09-08T09:16:14;6.00;;;3.50;;
69569;SDS011;56781;42.292;23.146;2023-09-08T09:21:22;5.72;;;3.38;;
69569;SDS011;56781;42.292;23.146;2023-09-08T09:23:50;5.82;;;3.53;;
69569;SDS011;56781;42.292;23.146;2023-09-08T09:26:26;5.95;;;3.20;;
69569;SDS011;56781;42.292;23.146;2023-09-08T09:28:53;9.55;;;3.63;;
69569;SDS011;56781;42.292;23.146;2023-09-08T09:31:24;5.57;;;3.30;;
69569;SDS011;56781;42.292;23.146;2023-09-08T09:34:01;9.07;;;3.65;;
69569;SDS011;56781;42.292;23.146;2023-09-08T09:36:32;6.60;;;3.40;;
69569;SDS011;56781;42.292;23.146;2023-09-08T09:38:59;6.70;;;3.58;;
69569;SDS011;56781;42.292;23.146;2023-09-08T09:41:27;7.18;;;3.58;;
69569;SDS011;56781;42.292;23.146;2023-09-08T09:43:56;6.53;;;4.03;;
69569;SDS011;56781;42.292;23.146;2023-09-08T09:46:24;5.60;;;3.70;;
69569;SDS011;56781;42.292;23.146;2023-09-08T09:48:54;10.55;;;4.22;;
69569;SDS011;56781;42.292;23.146;2023-09-08T09:51:23;6.82;;;3.88;;
69569;SDS011;56781;42.292;23.146;2023-09-08T09:53:50;6.68;;;3.40;;
69569;SDS011;56781;42.292;23.146;2023-09-08T09:56:17;8.00;;;3.80;;
69569;SDS011;56781;42.292;23.146;2023-09-08T09:58:44;6.93;;;3.53;;
69569;SDS011;56781;42.292;23.146;2023-09-08T10:01:13;5.30;;;3.70;;
69569;SDS011;56781;42.292;23.146;2023-09-08T10:03:41;5.53;;;3.00;;
69569;SDS011;56781;42.292;23.146;2023-09-08T10:06:09;5.50;;;3.50;;
69569;SDS011;56781;42.292;23.146;2023-09-08T10:08:37;6.10;;;3.67;;
69569;SDS011;56781;42.292;23.146;2023-09-08T10:11:06;7.28;;;3.50;;
69569;SDS011;56781;42.292;23.146;2023-09-08T10:13:38;6.22;;;3.60;;
69569;SDS011;56781;42.292;23.146;2023-09-08T10:16:09;9.57;;;3.58;;
69569;SDS011;56781;42.292;23.146;2023-09-08T10:18:39;5.10;;;3.53;;
69569;SDS011;56781;42.292;23.146;2023-09-08T10:21:10;7.23;;;3.70;;
69569;SDS011;56781;42.292;23.146;2023-09-08T10:23:40;5.45;;;3.90;;
69569;SDS011;56781;42.292;23.146;2023-09-08T10:26:10;6.05;;;3.50;;
69569;SDS011;56781;42.292;23.146;2023-09-08T10:28:38;7.68;;;3.65;;
69569;SDS011;56781;42.292;23.146;2023-09-08T10:31:05;7.32;;;3.85;;
69569;SDS011;56781;42.292;23.146;2023-09-08T10:33:34;7.20;;;3.90;;
69569;SDS011;56781;42.292;23.146;2023-09-08T10:36:02;7.20;;;3.78;;
69569;SDS011;56781;42.292;23.146;2023-09-08T10:38:32;6.80;;;3.85;;
69569;SDS011;56781;42.292;23.146;2023-09-08T10:43:44;5.72;;;3.58;;
69569;SDS011;56781;42.292;23.146;2023-09-08T10:46:28;8.07;;;3.67;;
69569;SDS011;56781;42.292;23.146;2023-09-08T10:49:01;6.63;;;3.88;;
69569;SDS011;56781;42.292;23.146;2023-09-08T10:51:37;6.72;;;3.95;;
69569;SDS011;56781;42.292;23.146;2023-09-08T10:54:05;6.18;;;3.78;;
69569;SDS011;56781;42.292;23.146;2023-09-08T10:56:53;5.97;;;3.55;;
69569;SDS011;56781;42.292;23.146;2023-09-08T11:00:08;5.80;;;3.43;;
69569;SDS011;56781;42.292;23.146;2023-09-08T11:02:39;5.80;;;3.83;;
69569;SDS011;56781;42.292;23.146;2023-09-08T11:05:12;7.05;;;3.90;;
69569;SDS011;56781;42.292;23.146;2023-09-08T11:07:40;6.70;;;3.45;;
69569;SDS011;56781;42.292;23.146;2023-09-08T11:10:09;10.73;;;3.50;;
69569;SDS011;56781;42.292;23.146;2023-09-08T11:12:37;6.53;;;3.80;;
69569;SDS011;56781;42.292;23.146;2023-09-08T11:15:05;6.60;;;3.30;;
69569;SDS011;56781;42.292;23.146;2023-09-08T11:17:35;8.13;;;3.65;;
69569;SDS011;56781;42.292;23.146;2023-09-08T11:20:06;6.80;;;3.38;;
69569;SDS011;56781;42.292;23.146;2023-09-08T11:22:35;7.38;;;4.28;;
69569;SDS011;56781;42.292;23.146;2023-09-08T11:25:05;7.27;;;3.60;;
69569;SDS011;56781;42.292;23.146;2023-09-08T11:27:34;5.63;;;3.25;;
69569;SDS011;56781;42.292;23.146;2023-09-08T11:30:02;6.45;;;3.40;;
69569;SDS011;56781;42.292;23.146;2023-09-08T11:32:32;6.22;;;3.70;;
69569;SDS011;56781;42.292;23.146;2023-09-08T11:35:06;6.72;;;3.25;;
69569;SDS011;56781;42.292;23.146;2023-09-08T11:37:41;5.47;;;3.30;;
69569;SDS011;56781;42.292;23.146;2023-09-08T11:40:09;6.85;;;3.40;;
69569;SDS011;56781;42.292;23.146;2023-09-08T11:42:41;6.45;;;3.65;;
69569;SDS011;56781;42.292;23.146;2023-09-08T11:45:15;5.95;;;3.20;;
69569;SDS011;56781;42.292;23.146;2023-09-08T11:47:47;5.10;;;3.30;;
69569;SDS011;56781;42.292;23.146;2023-09-08T11:50:17;5.60;;;3.27;;
69569;SDS011;56781;42.292;23.146;2023-09-08T11:52:46;6.82;;;3.33;;
69569;SDS011;56781;42.292;23.146;2023-09-08T11:55:14;5.07;;;3.35;;
69569;SDS011;56781;42.292;23.146;2023-09-08T11:57:42;6.45;;;3.60;;
69569;SDS011;56781;42.292;23.146;2023-09-08T12:00:11;6.13;;;3.22;;
69569;SDS011;56781;42.292;23.146;2023-09-08T12:02:43;6.63;;;3.20;;
69569;SDS011;56781;42.292;23.146;2023-09-08T12:05:24;5.53;;;3.20;;
69569;SDS011;56781;42.292;23.146;2023-09-08T12:07:54;7.03;;;3.50;;
69569;SDS011;56781;42.292;23.146;2023-09-08T12:10:23;6.05;;;3.25;;
69569;SDS011;56781;42.292;23.146;2023-09-08T12:12:52;5.80;;;3.42;;
69569;SDS011;56781;42.292;23.146;2023-09-08T12:15:33;7.40;;;3.17;;
69569;SDS011;56781;42.292;23.146;2023-09-08T12:18:02;6.18;;;3.42;;
69569;SDS011;56781;42.292;23.146;2023-09-08T12:20:31;6.93;;;3.40;;
69569;SDS011;56781;42.292;23.146;2023-09-08T12:23:03;5.78;;;3.10;;
69569;SDS011;56781;42.292;23.146;2023-09-08T12:25:31;8.20;;;3.40;;
69569;SDS011;56781;42.292;23.146;2023-09-08T12:27:58;6.00;;;3.10;;
69569;SDS011;56781;42.292;23.146;2023-09-08T12:30:26;4.95;;;2.95;;
69569;SDS011;56781;42.292;23.146;2023-09-08T12:32:59;5.50;;;3.50;;
69569;SDS011;56781;42.292;23.146;2023-09-08T12:35:28;6.60;;;3.40;;
69569;SDS011;56781;42.292;23.146;2023-09-08T12:38:01;7.28;;;3.20;;
69569;SDS011;56781;42.292;23.146;2023-09-08T12:40:32;8.00;;;3.53;;
69569;SDS011;56781;42.292;23.146;2023-09-08T12:43:01;5.03;;;3.05;;
69569;SDS011;56781;42.292;23.146;2023-09-08T12:45:43;7.88;;;3.60;;
69569;SDS011;56781;42.292;23.146;2023-09-08T12:48:13;5.55;;;3.08;;
69569;SDS011;56781;42.292;23.146;2023-09-08T12:50:40;6.80;;;3.67;;
69569;SDS011;56781;42.292;23.146;2023-09-08T12:53:07;5.57;;;3.23;;
69569;SDS011;56781;42.292;23.146;2023-09-08T12:55:34;5.43;;;3.30;;
69569;SDS011;56781;42.292;23.146;2023-09-08T12:58:01;6.47;;;3.38;;
69569;SDS011;56781;42.292;23.146;2023-09-08T13:00:28;6.50;;;2.80;;
69569;SDS011;56781;42.292;23.146;2023-09-08T13:02:55;6.10;;;3.55;;
69569;SDS011;56781;42.292;23.146;2023-09-08T13:05:22;7.77;;;3.40;;
69569;SDS011;56781;42.292;23.146;2023-09-08T13:07:49;6.57;;;3.20;;
69569;SDS011;56781;42.292;23.146;2023-09-08T13:10:17;10.50;;;3.50;;
69569;SDS011;56781;42.292;23.146;2023-09-08T13:12:44;7.65;;;3.30;;
69569;SDS011;56781;42.292;23.146;2023-09-08T13:15:11;4.93;;;3.08;;
69569;SDS011;56781;42.292;23.146;2023-09-08T13:17:38;7.70;;;3.07;;
69569;SDS011;56781;42.292;23.146;2023-09-08T13:20:06;5.78;;;3.42;;
69569;SDS011;56781;42.292;23.146;2023-09-08T13:22:34;5.40;;;2.97;;
69569;SDS011;56781;42.292;23.146;2023-09-08T13:25:01;6.78;;;3.22;;
69569;SDS011;56781;42.292;23.146;2023-09-08T13:27:28;5.75;;;3.40;;
69569;SDS011;56781;42.292;23.146;2023-09-08T13:30:07;5.00;;;3.00;;
69569;SDS011;56781;42.292;23.146;2023-09-08T13:32:38;6.13;;;3.38;;
69569;SDS011;56781;42.292;23.146;2023-09-08T13:35:06;5.32;;;3.35;;
69569;SDS011;56781;42.292;23.146;2023-09-08T13:37:33;6.60;;;3.30;;
69569;SDS011;56781;42.292;23.146;2023-09-08T13:40:05;5.10;;;3.33;;
69569;SDS011;56781;42.292;23.146;2023-09-08T13:42:34;5.40;;;3.10;;
69569;SDS011;56781;42.292;23.146;2023-09-08T13:45:01;5.95;;;3.05;;
69569;SDS011;56781;42.292;23.146;2023-09-08T13:47:29;4.47;;;3.00;;
69569;SDS011;56781;42.292;23.146;2023-09-08T13:49:56;9.25;;;3.10;;
69569;SDS011;56781;42.292;23.146;2023-09-08T13:52:24;6.03;;;3.33;;
69569;SDS011;56781;42.292;23.146;2023-09-08T13:54:53;7.03;;;2.90;;
69569;SDS011;56781;42.292;23.146;2023-09-08T13:57:41;5.82;;;3.15;;
69569;SDS011;56781;42.292;23.146;2023-09-08T14:00:08;5.57;;;3.20;;
69569;SDS011;56781;42.292;23.146;2023-09-08T14:02:41;5.93;;;3.35;;
69569;SDS011;56781;42.292;23.146;2023-09-08T14:05:15;6.85;;;3.03;;
69569;SDS011;56781;42.292;23.146;2023-09-08T14:07:45;4.80;;;3.20;;
69569;SDS011;56781;42.292;23.146;2023-09-08T14:10:21;6.97;;;3.40;;
69569;SDS011;56781;42.292;23.146;2023-09-08T14:12:51;8.02;;;3.80;;
69569;SDS011;56781;42.292;23.146;2023-09-08T14:15:19;6.50;;;3.25;;
69569;SDS011;56781;42.292;23.146;2023-09-08T14:17:46;9.00;;;3.28;;
69569;SDS011;56781;42.292;23.146;2023-09-08T14:20:13;6.63;;;3.50;;
69569;SDS011;56781;42.292;23.146;2023-09-08T14:22:40;7.00;;;3.30;;
69569;SDS011;56781;42.292;23.146;2023-09-08T14:25:07;5.80;;;3.50;;
69569;SDS011;56781;42.292;23.146;2023-09-08T14:27:35;6.30;;;3.42;;
69569;SDS011;56781;42.292;23.146;2023-09-08T14:30:06;5.53;;;3.38;;
69569;SDS011;56781;42.292;23.146;2023-09-08T14:32:33;6.20;;;3.10;;
69569;SDS011;56781;42.292;23.146;2023-09-08T14:35:00;5.38;;;3.30;;
69569;SDS011;56781;42.292;23.146;2023-09-08T14:37:27;4.88;;;3.67;;
69569;SDS011;56781;42.292;23.146;2023-09-08T14:39:54;5.78;;;3.30;;
69569;SDS011;56781;42.292;23.146;2023-09-08T14:42:21;7.07;;;3.38;;
69569;SDS011;56781;42.292;23.146;2023-09-08T14:44:48;6.57;;;3.17;;
69569;SDS011;56781;42.292;23.146;2023-09-08T14:47:18;5.32;;;3.45;;
69569;SDS011;56781;42.292;23.146;2023-09-08T14:49:45;7.40;;;3.30;;
69569;SDS011;56781;42.292;23.146;2023-09-08T14:52:12;6.90;;;3.42;;
69569;SDS011;56781;42.292;23.146;2023-09-08T14:54:40;5.82;;;3.28;;
69569;SDS011;56781;42.292;23.146;2023-09-08T14:57:07;6.10;;;3.50;;
69569;SDS011;56781;42.292;23.146;2023-09-08T14:59:34;5.25;;;3.28;;
69569;SDS011;56781;42.292;23.146;2023-09-08T15:02:01;5.85;;;3.50;;
69569;SDS011;56781;42.292;23.146;2023-09-08T15:04:29;7.55;;;3.55;;
69569;SDS011;56781;42.292;23.146;2023-09-08T15:06:56;5.45;;;3.67;;
69569;SDS011;56781;42.292;23.146;2023-09-08T15:09:23;5.90;;;3.67;;
69569;SDS011;56781;42.292;23.146;2023-09-08T15:11:50;8.63;;;3.30;;
69569;SDS011;56781;42.292;23.146;2023-09-08T15:14:17;7.57;;;3.45;;
69569;SDS011;56781;42.292;23.146;2023-09-08T15:16:44;7.35;;;3.35;;
69569;SDS011;56781;42.292;23.146;2023-09-08T15:19:11;5.85;;;3.58;;
69569;SDS011;56781;42.292;23.146;2023-09-08T15:21:38;6.00;;;3.53;;
69569;SDS011;56781;42.292;23.146;2023-09-08T15:24:05;9.10;;;3.40;;